sensor_id;sensor_type;location;lat;lon;timestamp;P1;durP1;ratioP1;P2;durP2;ratioP2
75073;SDS011;63652;51.526;5.080;2023-02-05T00:01:49;56.50;;;26.00;;
75073;SDS011;63652;51.526;5.080;2023-02-05T00:04:15;50.50;;;23.08;;
75073;SDS011;63652;51.526;5.080;2023-02-05T00:06:40;50.25;;;24.63;;
75073;SDS011;63652;51.526;5.080;2023-02-05T00:09:05;47.35;;;22.20;;
75073;SDS011;63652;51.526;5.080;2023-02-05T00:11:31;56.33;;;23.23;;
75073;SDS011;63652;51.526;5.080;2023-02-05T00:13:56;52.83;;;23.73;;
75073;SDS011;63652;51.526;5.080;2023-02-05T00:16:22;53.75;;;24.73;;
75073;SDS011;63652;51.526;5.080;2023-02-05T00:18:48;53.47;;;24.98;;
75073;SDS011;63652;51.526;5.080;2023-02-05T00:21:14;58.58;;;26.83;;
75073;SDS011;63652;51.526;5.080;2023-02-05T00:23:40;61.70;;;24.73;;
75073;SDS011;63652;51.526;5.080;2023-02-05T00:26:06;62.75;;;27.58;;
75073;SDS011;63652;51.526;5.080;2023-02-05T00:28:35;60.33;;;26.63;;
75073;SDS011;63652;51.526;5.080;2023-02-05T00:31:05;58.70;;;28.42;;
75073;SDS011;63652;51.526;5.080;2023-02-05T00:33:35;63.70;;;25.33;;
75073;SDS011;63652;51.526;5.080;2023-02-05T00:36:00;60.83;;;25.08;;
75073;SDS011;63652;51.526;5.080;2023-02-05T00:38:25;54.55;;;24.33;;
75073;SDS011;63652;51.526;5.080;2023-02-05T00:40:51;54.40;;;23.27;;
75073;SDS011;63652;51.526;5.080;2023-02-05T00:43:16;59.85;;;25.33;;
75073;SDS011;63652;51.526;5.080;2023-02-05T00:45:42;52.40;;;22.80;;
75073;SDS011;63652;51.526;5.080;2023-02-05T00:48:07;56.13;;;24.70;;
75073;SDS011;63652;51.526;5.080;2023-02-05T00:50:33;57.00;;;24.20;;
75073;SDS011;63652;51.526;5.080;2023-02-05T00:52:58;54.10;;;22.15;;
75073;SDS011;63652;51.526;5.080;2023-02-05T00:55:24;56.63;;;23.50;;
75073;SDS011;63652;51.526;5.080;2023-02-05T00:57:49;55.05;;;25.05;;
75073;SDS011;63652;51.526;5.080;2023-02-05T01:00:15;50.55;;;23.02;;
75073;SDS011;63652;51.526;5.080;2023-02-05T01:02:40;55.90;;;22.98;;
75073;SDS011;63652;51.526;5.080;2023-02-05T01:05:06;52.53;;;22.48;;
75073;SDS011;63652;51.526;5.080;2023-02-05T01:07:31;54.67;;;21.98;;
75073;SDS011;63652;51.526;5.080;2023-02-05T01:09:57;52.50;;;22.52;;
75073;SDS011;63652;51.526;5.080;2023-02-05T01:12:22;51.75;;;21.88;;
75073;SDS011;63652;51.526;5.080;2023-02-05T01:14:48;58.90;;;24.05;;
75073;SDS011;63652;51.526;5.080;2023-02-05T01:17:14;58.85;;;23.00;;
75073;SDS011;63652;51.526;5.080;2023-02-05T01:19:39;51.67;;;22.73;;
75073;SDS011;63652;51.526;5.080;2023-02-05T01:22:04;50.15;;;22.70;;
75073;SDS011;63652;51.526;5.080;2023-02-05T01:24:30;51.72;;;23.15;;
75073;SDS011;63652;51.526;5.080;2023-02-05T01:26:56;53.42;;;22.85;;
75073;SDS011;63652;51.526;5.080;2023-02-05T01:29:23;48.25;;;21.58;;
75073;SDS011;63652;51.526;5.080;2023-02-05T01:31:51;52.83;;;22.08;;
75073;SDS011;63652;51.526;5.080;2023-02-05T01:34:17;53.00;;;22.63;;
75073;SDS011;63652;51.526;5.080;2023-02-05T01:36:43;52.45;;;21.05;;
75073;SDS011;63652;51.526;5.080;2023-02-05T01:39:08;50.65;;;21.77;;
75073;SDS011;63652;51.526;5.080;2023-02-05T01:41:34;50.40;;;22.08;;
75073;SDS011;63652;51.526;5.080;2023-02-05T01:44:10;56.40;;;22.58;;
75073;SDS011;63652;51.526;5.080;2023-02-05T01:46:36;46.50;;;21.30;;
75073;SDS011;63652;51.526;5.080;2023-02-05T01:49:03;51.05;;;21.48;;
75073;SDS011;63652;51.526;5.080;2023-02-05T01:51:30;48.95;;;22.17;;
75073;SDS011;63652;51.526;5.080;2023-02-05T01:53:57;47.60;;;20.08;;
75073;SDS011;63652;51.526;5.080;2023-02-05T01:56:25;42.22;;;19.60;;
75073;SDS011;63652;51.526;5.080;2023-02-05T01:58:58;47.92;;;20.08;;
75073;SDS011;63652;51.526;5.080;2023-02-05T02:01:25;49.10;;;19.85;;
75073;SDS011;63652;51.526;5.080;2023-02-05T02:03:52;49.30;;;20.10;;
75073;SDS011;63652;51.526;5.080;2023-02-05T02:06:19;46.08;;;20.08;;
75073;SDS011;63652;51.526;5.080;2023-02-05T02:08:47;47.53;;;17.98;;
75073;SDS011;63652;51.526;5.080;2023-02-05T02:11:13;46.40;;;19.27;;
75073;SDS011;63652;51.526;5.080;2023-02-05T02:13:41;57.13;;;20.90;;
75073;SDS011;63652;51.526;5.080;2023-02-05T02:16:08;50.05;;;21.17;;
75073;SDS011;63652;51.526;5.080;2023-02-05T02:18:34;48.33;;;20.10;;
75073;SDS011;63652;51.526;5.080;2023-02-05T02:23:37;42.33;;;19.13;;
75073;SDS011;63652;51.526;5.080;2023-02-05T02:26:10;45.88;;;18.55;;
75073;SDS011;63652;51.526;5.080;2023-02-05T02:29:01;40.75;;;18.80;;
75073;SDS011;63652;51.526;5.080;2023-02-05T02:31:32;42.05;;;17.70;;
75073;SDS011;63652;51.526;5.080;2023-02-05T02:36:46;34.95;;;17.00;;
75073;SDS011;63652;51.526;5.080;2023-02-05T02:42:57;33.17;;;15.02;;
75073;SDS011;63652;51.526;5.080;2023-02-05T02:44:59;33.97;;;14.40;;
75073;SDS011;63652;51.526;5.080;2023-02-05T02:47:30;31.02;;;13.55;;
75073;SDS011;63652;51.526;5.080;2023-02-05T02:50:03;29.73;;;14.23;;
75073;SDS011;63652;51.526;5.080;2023-02-05T02:52:35;32.28;;;13.45;;
75073;SDS011;63652;51.526;5.080;2023-02-05T02:55:03;36.40;;;14.55;;
75073;SDS011;63652;51.526;5.080;2023-02-05T02:57:32;31.73;;;12.93;;
75073;SDS011;63652;51.526;5.080;2023-02-05T02:59:59;32.72;;;13.63;;
75073;SDS011;63652;51.526;5.080;2023-02-05T03:02:27;30.92;;;13.18;;
75073;SDS011;63652;51.526;5.080;2023-02-05T03:04:56;30.77;;;12.70;;
75073;SDS011;63652;51.526;5.080;2023-02-05T03:07:25;27.58;;;12.75;;
75073;SDS011;63652;51.526;5.080;2023-02-05T03:10:07;38.42;;;13.68;;
75073;SDS011;63652;51.526;5.080;2023-02-05T03:12:37;30.35;;;12.85;;
75073;SDS011;63652;51.526;5.080;2023-02-05T03:15:03;21.60;;;11.57;;
75073;SDS011;63652;51.526;5.080;2023-02-05T03:17:32;20.38;;;10.48;;
75073;SDS011;63652;51.526;5.080;2023-02-05T03:20:00;24.58;;;9.88;;
75073;SDS011;63652;51.526;5.080;2023-02-05T03:22:32;23.65;;;9.85;;
75073;SDS011;63652;51.526;5.080;2023-02-05T03:24:58;21.85;;;10.13;;
75073;SDS011;63652;51.526;5.080;2023-02-05T03:27:24;22.30;;;10.93;;
75073;SDS011;63652;51.526;5.080;2023-02-05T03:29:49;25.60;;;9.65;;
75073;SDS011;63652;51.526;5.080;2023-02-05T03:39:56;19.70;;;8.95;;
75073;SDS011;63652;51.526;5.080;2023-02-05T03:45:33;20.00;;;8.88;;
75073;SDS011;63652;51.526;5.080;2023-02-05T03:50:42;22.02;;;9.73;;
75073;SDS011;63652;51.526;5.080;2023-02-05T03:53:33;18.92;;;9.48;;
75073;SDS011;63652;51.526;5.080;2023-02-05T03:56:02;18.95;;;9.27;;
75073;SDS011;63652;51.526;5.080;2023-02-05T03:58:37;22.02;;;9.27;;
75073;SDS011;63652;51.526;5.080;2023-02-05T04:01:04;24.75;;;10.88;;
75073;SDS011;63652;51.526;5.080;2023-02-05T04:03:30;19.83;;;9.63;;
75073;SDS011;63652;51.526;5.080;2023-02-05T04:05:59;20.00;;;8.68;;
75073;SDS011;63652;51.526;5.080;2023-02-05T04:08:29;16.88;;;8.70;;
75073;SDS011;63652;51.526;5.080;2023-02-05T04:10:55;19.38;;;8.35;;
75073;SDS011;63652;51.526;5.080;2023-02-05T04:13:20;18.30;;;8.57;;
75073;SDS011;63652;51.526;5.080;2023-02-05T04:15:49;17.60;;;8.52;;
75073;SDS011;63652;51.526;5.080;2023-02-05T04:18:15;22.83;;;9.23;;
75073;SDS011;63652;51.526;5.080;2023-02-05T04:20:40;17.45;;;8.15;;
75073;SDS011;63652;51.526;5.080;2023-02-05T04:23:06;21.35;;;9.82;;
75073;SDS011;63652;51.526;5.080;2023-02-05T04:25:31;20.83;;;9.40;;
75073;SDS011;63652;51.526;5.080;2023-02-05T04:27:57;19.77;;;9.57;;
75073;SDS011;63652;51.526;5.080;2023-02-05T04:30:22;29.48;;;10.27;;
75073;SDS011;63652;51.526;5.080;2023-02-05T04:32:48;21.48;;;10.75;;
75073;SDS011;63652;51.526;5.080;2023-02-05T04:35:13;18.73;;;9.85;;
75073;SDS011;63652;51.526;5.080;2023-02-05T04:37:39;18.80;;;10.15;;
75073;SDS011;63652;51.526;5.080;2023-02-05T04:40:04;20.13;;;10.10;;
75073;SDS011;63652;51.526;5.080;2023-02-05T04:42:30;20.85;;;10.23;;
75073;SDS011;63652;51.526;5.080;2023-02-05T04:44:59;18.52;;;9.35;;
75073;SDS011;63652;51.526;5.080;2023-02-05T04:47:28;21.45;;;9.57;;
75073;SDS011;63652;51.526;5.080;2023-02-05T04:49:54;16.48;;;8.32;;
75073;SDS011;63652;51.526;5.080;2023-02-05T04:52:19;20.92;;;10.63;;
75073;SDS011;63652;51.526;5.080;2023-02-05T04:54:44;18.85;;;10.68;;
75073;SDS011;63652;51.526;5.080;2023-02-05T04:57:10;22.42;;;10.82;;
75073;SDS011;63652;51.526;5.080;2023-02-05T04:59:35;25.80;;;10.70;;
75073;SDS011;63652;51.526;5.080;2023-02-05T05:02:03;21.80;;;9.40;;
75073;SDS011;63652;51.526;5.080;2023-02-05T05:04:31;20.88;;;10.75;;
75073;SDS011;63652;51.526;5.080;2023-02-05T05:06:57;23.33;;;10.38;;
75073;SDS011;63652;51.526;5.080;2023-02-05T05:09:22;25.20;;;11.18;;
75073;SDS011;63652;51.526;5.080;2023-02-05T05:11:51;23.20;;;10.93;;
75073;SDS011;63652;51.526;5.080;2023-02-05T05:14:17;24.67;;;9.75;;
75073;SDS011;63652;51.526;5.080;2023-02-05T05:16:45;24.77;;;11.25;;
75073;SDS011;63652;51.526;5.080;2023-02-05T05:19:10;22.70;;;10.88;;
75073;SDS011;63652;51.526;5.080;2023-02-05T05:21:36;19.25;;;9.98;;
75073;SDS011;63652;51.526;5.080;2023-02-05T05:24:01;24.13;;;10.55;;
75073;SDS011;63652;51.526;5.080;2023-02-05T05:26:27;23.42;;;10.48;;
75073;SDS011;63652;51.526;5.080;2023-02-05T05:28:55;26.98;;;11.07;;
75073;SDS011;63652;51.526;5.080;2023-02-05T05:31:21;24.92;;;10.90;;
75073;SDS011;63652;51.526;5.080;2023-02-05T05:33:46;29.30;;;11.15;;
75073;SDS011;63652;51.526;5.080;2023-02-05T05:36:12;20.42;;;10.35;;
75073;SDS011;63652;51.526;5.080;2023-02-05T05:38:38;20.27;;;10.98;;
75073;SDS011;63652;51.526;5.080;2023-02-05T05:41:04;25.45;;;11.25;;
75073;SDS011;63652;51.526;5.080;2023-02-05T05:43:48;20.13;;;9.93;;
75073;SDS011;63652;51.526;5.080;2023-02-05T05:46:15;17.35;;;8.45;;
75073;SDS011;63652;51.526;5.080;2023-02-05T05:48:46;19.92;;;8.38;;
75073;SDS011;63652;51.526;5.080;2023-02-05T05:51:13;16.42;;;8.55;;
75073;SDS011;63652;51.526;5.080;2023-02-05T05:53:38;11.63;;;5.20;;
75073;SDS011;63652;51.526;5.080;2023-02-05T05:56:04;12.40;;;7.13;;
75073;SDS011;63652;51.526;5.080;2023-02-05T05:58:29;11.85;;;6.10;;
75073;SDS011;63652;51.526;5.080;2023-02-05T06:00:55;11.30;;;4.65;;
75073;SDS011;63652;51.526;5.080;2023-02-05T06:03:23;7.55;;;3.90;;
75073;SDS011;63652;51.526;5.080;2023-02-05T06:05:49;7.20;;;3.28;;
75073;SDS011;63652;51.526;5.080;2023-02-05T06:08:15;11.35;;;3.22;;
75073;SDS011;63652;51.526;5.080;2023-02-05T06:10:40;5.75;;;3.03;;
75073;SDS011;63652;51.526;5.080;2023-02-05T06:13:06;6.25;;;2.80;;
75073;SDS011;63652;51.526;5.080;2023-02-05T06:15:34;4.60;;;2.25;;
75073;SDS011;63652;51.526;5.080;2023-02-05T06:18:02;5.93;;;2.10;;
75073;SDS011;63652;51.526;5.080;2023-02-05T06:20:27;3.20;;;1.40;;
75073;SDS011;63652;51.526;5.080;2023-02-05T06:22:53;1.65;;;0.90;;
75073;SDS011;63652;51.526;5.080;2023-02-05T06:25:18;5.00;;;1.40;;
75073;SDS011;63652;51.526;5.080;2023-02-05T06:27:44;9.15;;;1.65;;
75073;SDS011;63652;51.526;5.080;2023-02-05T06:30:11;11.10;;;2.38;;
75073;SDS011;63652;51.526;5.080;2023-02-05T06:32:37;5.40;;;1.38;;
75073;SDS011;63652;51.526;5.080;2023-02-05T06:35:03;7.72;;;1.48;;
75073;SDS011;63652;51.526;5.080;2023-02-05T06:37:28;6.20;;;1.02;;
75073;SDS011;63652;51.526;5.080;2023-02-05T06:39:54;7.65;;;1.70;;
75073;SDS011;63652;51.526;5.080;2023-02-05T06:42:20;4.10;;;1.35;;
75073;SDS011;63652;51.526;5.080;2023-02-05T06:44:46;10.80;;;1.30;;
75073;SDS011;63652;51.526;5.080;2023-02-05T06:47:11;7.40;;;1.20;;
75073;SDS011;63652;51.526;5.080;2023-02-05T06:49:36;5.88;;;0.60;;
75073;SDS011;63652;51.526;5.080;2023-02-05T06:52:05;7.20;;;0.80;;
75073;SDS011;63652;51.526;5.080;2023-02-05T06:54:30;5.63;;;0.60;;
75073;SDS011;63652;51.526;5.080;2023-02-05T06:56:58;5.25;;;1.23;;
75073;SDS011;63652;51.526;5.080;2023-02-05T06:59:24;4.53;;;0.82;;
75073;SDS011;63652;51.526;5.080;2023-02-05T07:01:49;5.07;;;0.73;;
75073;SDS011;63652;51.526;5.080;2023-02-05T07:04:17;8.25;;;1.02;;
75073;SDS011;63652;51.526;5.080;2023-02-05T07:06:43;3.13;;;0.73;;
75073;SDS011;63652;51.526;5.080;2023-02-05T07:09:08;4.88;;;0.80;;
75073;SDS011;63652;51.526;5.080;2023-02-05T07:11:33;6.13;;;0.98;;
75073;SDS011;63652;51.526;5.080;2023-02-05T07:14:00;5.45;;;0.90;;
75073;SDS011;63652;51.526;5.080;2023-02-05T07:16:26;3.13;;;0.70;;
75073;SDS011;63652;51.526;5.080;2023-02-05T07:18:52;4.60;;;0.95;;
75073;SDS011;63652;51.526;5.080;2023-02-05T07:21:17;3.95;;;1.05;;
75073;SDS011;63652;51.526;5.080;2023-02-05T07:23:46;7.53;;;1.15;;
75073;SDS011;63652;51.526;5.080;2023-02-05T07:26:12;11.07;;;1.30;;
75073;SDS011;63652;51.526;5.080;2023-02-05T07:28:39;5.60;;;1.02;;
75073;SDS011;63652;51.526;5.080;2023-02-05T07:31:05;8.15;;;1.20;;
75073;SDS011;63652;51.526;5.080;2023-02-05T07:33:32;5.25;;;0.75;;
75073;SDS011;63652;51.526;5.080;2023-02-05T07:36:01;8.85;;;0.93;;
75073;SDS011;63652;51.526;5.080;2023-02-05T07:38:27;5.28;;;1.05;;
75073;SDS011;63652;51.526;5.080;2023-02-05T07:40:52;4.95;;;1.77;;
75073;SDS011;63652;51.526;5.080;2023-02-05T07:43:20;8.52;;;1.17;;
75073;SDS011;63652;51.526;5.080;2023-02-05T07:45:46;9.63;;;0.98;;
75073;SDS011;63652;51.526;5.080;2023-02-05T07:48:12;4.78;;;1.13;;
75073;SDS011;63652;51.526;5.080;2023-02-05T07:50:41;5.70;;;0.73;;
75073;SDS011;63652;51.526;5.080;2023-02-05T07:53:08;4.60;;;1.00;;
75073;SDS011;63652;51.526;5.080;2023-02-05T07:55:33;5.70;;;1.25;;
75073;SDS011;63652;51.526;5.080;2023-02-05T07:57:59;5.38;;;0.60;;
75073;SDS011;63652;51.526;5.080;2023-02-05T08:00:24;7.43;;;1.13;;
75073;SDS011;63652;51.526;5.080;2023-02-05T08:02:49;9.82;;;1.10;;
75073;SDS011;63652;51.526;5.080;2023-02-05T08:05:15;5.85;;;1.25;;
75073;SDS011;63652;51.526;5.080;2023-02-05T08:07:40;6.75;;;1.13;;
75073;SDS011;63652;51.526;5.080;2023-02-05T08:10:06;2.83;;;0.70;;
75073;SDS011;63652;51.526;5.080;2023-02-05T08:12:31;4.40;;;0.73;;
75073;SDS011;63652;51.526;5.080;2023-02-05T08:14:57;5.57;;;1.98;;
75073;SDS011;63652;51.526;5.080;2023-02-05T08:17:22;8.20;;;1.17;;
75073;SDS011;63652;51.526;5.080;2023-02-05T08:19:49;7.18;;;1.42;;
75073;SDS011;63652;51.526;5.080;2023-02-05T08:22:17;10.90;;;1.55;;
75073;SDS011;63652;51.526;5.080;2023-02-05T08:24:42;11.30;;;1.52;;
75073;SDS011;63652;51.526;5.080;2023-02-05T08:27:07;12.75;;;2.00;;
75073;SDS011;63652;51.526;5.080;2023-02-05T08:29:33;6.93;;;1.40;;
75073;SDS011;63652;51.526;5.080;2023-02-05T08:31:58;14.57;;;1.27;;
75073;SDS011;63652;51.526;5.080;2023-02-05T08:34:24;5.50;;;1.05;;
75073;SDS011;63652;51.526;5.080;2023-02-05T08:36:49;8.07;;;2.13;;
75073;SDS011;63652;51.526;5.080;2023-02-05T08:39:14;8.05;;;1.17;;
75073;SDS011;63652;51.526;5.080;2023-02-05T08:41:40;8.30;;;1.63;;
75073;SDS011;63652;51.526;5.080;2023-02-05T08:44:05;8.13;;;2.00;;
75073;SDS011;63652;51.526;5.080;2023-02-05T08:46:31;15.50;;;1.90;;
75073;SDS011;63652;51.526;5.080;2023-02-05T08:48:57;7.57;;;1.45;;
75073;SDS011;63652;51.526;5.080;2023-02-05T08:51:23;6.30;;;1.80;;
75073;SDS011;63652;51.526;5.080;2023-02-05T08:53:48;8.52;;;1.73;;
75073;SDS011;63652;51.526;5.080;2023-02-05T08:56:14;7.72;;;1.80;;
75073;SDS011;63652;51.526;5.080;2023-02-05T08:58:41;10.25;;;2.10;;
75073;SDS011;63652;51.526;5.080;2023-02-05T09:01:10;6.65;;;1.60;;
75073;SDS011;63652;51.526;5.080;2023-02-05T09:03:37;15.18;;;1.85;;
75073;SDS011;63652;51.526;5.080;2023-02-05T09:06:07;16.90;;;2.50;;
75073;SDS011;63652;51.526;5.080;2023-02-05T09:08:34;14.82;;;3.03;;
75073;SDS011;63652;51.526;5.080;2023-02-05T09:11:00;15.23;;;2.15;;
75073;SDS011;63652;51.526;5.080;2023-02-05T09:13:29;6.85;;;0.98;;
75073;SDS011;63652;51.526;5.080;2023-02-05T09:15:56;6.10;;;1.42;;
75073;SDS011;63652;51.526;5.080;2023-02-05T09:18:22;18.02;;;3.25;;
75073;SDS011;63652;51.526;5.080;2023-02-05T09:20:50;17.35;;;2.10;;
75073;SDS011;63652;51.526;5.080;2023-02-05T09:23:16;11.27;;;2.17;;
75073;SDS011;63652;51.526;5.080;2023-02-05T09:25:42;15.50;;;1.95;;
75073;SDS011;63652;51.526;5.080;2023-02-05T09:28:09;13.18;;;3.03;;
75073;SDS011;63652;51.526;5.080;2023-02-05T09:30:36;20.30;;;2.70;;
75073;SDS011;63652;51.526;5.080;2023-02-05T09:33:06;17.42;;;2.17;;
75073;SDS011;63652;51.526;5.080;2023-02-05T09:35:33;15.75;;;2.80;;
75073;SDS011;63652;51.526;5.080;2023-02-05T09:38:01;13.73;;;1.67;;
75073;SDS011;63652;51.526;5.080;2023-02-05T09:41:03;13.23;;;2.22;;
75073;SDS011;63652;51.526;5.080;2023-02-05T09:46:31;14.65;;;2.90;;
75073;SDS011;63652;51.526;5.080;2023-02-05T09:49:20;17.70;;;4.03;;
75073;SDS011;63652;51.526;5.080;2023-02-05T09:51:51;17.17;;;2.70;;
75073;SDS011;63652;51.526;5.080;2023-02-05T09:54:22;19.02;;;4.72;;
75073;SDS011;63652;51.526;5.080;2023-02-05T09:56:50;16.85;;;2.53;;
75073;SDS011;63652;51.526;5.080;2023-02-05T09:59:21;19.15;;;2.97;;
75073;SDS011;63652;51.526;5.080;2023-02-05T10:04:17;13.15;;;2.38;;
75073;SDS011;63652;51.526;5.080;2023-02-05T10:12:05;15.32;;;2.53;;
75073;SDS011;63652;51.526;5.080;2023-02-05T10:22:52;16.38;;;2.67;;
75073;SDS011;63652;51.526;5.080;2023-02-05T10:25:43;13.35;;;2.47;;
75073;SDS011;63652;51.526;5.080;2023-02-05T10:30:57;14.48;;;3.15;;
75073;SDS011;63652;51.526;5.080;2023-02-05T10:33:44;15.18;;;2.85;;
75073;SDS011;63652;51.526;5.080;2023-02-05T10:36:12;12.93;;;1.80;;
75073;SDS011;63652;51.526;5.080;2023-02-05T10:38:42;18.65;;;2.65;;
75073;SDS011;63652;51.526;5.080;2023-02-05T10:41:27;18.98;;;2.92;;
75073;SDS011;63652;51.526;5.080;2023-02-05T10:44:16;12.70;;;2.10;;
75073;SDS011;63652;51.526;5.080;2023-02-05T10:46:57;9.80;;;2.67;;
75073;SDS011;63652;51.526;5.080;2023-02-05T10:52:04;12.32;;;2.20;;
75073;SDS011;63652;51.526;5.080;2023-02-05T10:54:30;13.82;;;2.08;;
75073;SDS011;63652;51.526;5.080;2023-02-05T10:56:58;20.20;;;3.80;;
75073;SDS011;63652;51.526;5.080;2023-02-05T10:59:25;16.45;;;2.70;;
75073;SDS011;63652;51.526;5.080;2023-02-05T11:01:52;25.88;;;3.55;;
75073;SDS011;63652;51.526;5.080;2023-02-05T11:07:08;7.68;;;2.67;;
75073;SDS011;63652;51.526;5.080;2023-02-05T11:09:36;14.18;;;2.55;;
75073;SDS011;63652;51.526;5.080;2023-02-05T11:12:03;9.95;;;2.50;;
75073;SDS011;63652;51.526;5.080;2023-02-05T11:14:31;16.20;;;2.25;;
75073;SDS011;63652;51.526;5.080;2023-02-05T11:17:22;8.52;;;1.80;;
75073;SDS011;63652;51.526;5.080;2023-02-05T11:19:52;23.60;;;2.67;;
75073;SDS011;63652;51.526;5.080;2023-02-05T11:22:28;14.55;;;2.13;;
75073;SDS011;63652;51.526;5.080;2023-02-05T11:27:48;13.25;;;2.05;;
75073;SDS011;63652;51.526;5.080;2023-02-05T11:30:18;14.55;;;2.80;;
75073;SDS011;63652;51.526;5.080;2023-02-05T11:32:49;7.57;;;1.58;;
75073;SDS011;63652;51.526;5.080;2023-02-05T11:35:25;20.63;;;2.45;;
75073;SDS011;63652;51.526;5.080;2023-02-05T11:40:30;20.95;;;2.88;;
75073;SDS011;63652;51.526;5.080;2023-02-05T11:43:03;25.95;;;3.97;;
75073;SDS011;63652;51.526;5.080;2023-02-05T11:45:31;12.90;;;2.10;;
75073;SDS011;63652;51.526;5.080;2023-02-05T11:48:03;19.50;;;3.53;;
75073;SDS011;63652;51.526;5.080;2023-02-05T11:50:30;17.92;;;2.55;;
75073;SDS011;63652;51.526;5.080;2023-02-05T11:53:04;16.65;;;3.33;;
75073;SDS011;63652;51.526;5.080;2023-02-05T11:55:32;10.75;;;2.20;;
75073;SDS011;63652;51.526;5.080;2023-02-05T11:58:00;18.88;;;2.80;;
75073;SDS011;63652;51.526;5.080;2023-02-05T12:00:26;13.23;;;2.33;;
75073;SDS011;63652;51.526;5.080;2023-02-05T12:03:05;12.85;;;1.92;;
75073;SDS011;63652;51.526;5.080;2023-02-05T12:05:42;12.30;;;2.53;;
75073;SDS011;63652;51.526;5.080;2023-02-05T12:08:13;10.80;;;2.22;;
75073;SDS011;63652;51.526;5.080;2023-02-05T12:10:50;14.65;;;2.10;;
75073;SDS011;63652;51.526;5.080;2023-02-05T12:16:21;14.57;;;2.70;;
75073;SDS011;63652;51.526;5.080;2023-02-05T12:19:01;15.88;;;2.42;;
75073;SDS011;63652;51.526;5.080;2023-02-05T12:21:48;16.88;;;2.35;;
75073;SDS011;63652;51.526;5.080;2023-02-05T12:32:35;10.80;;;2.28;;
75073;SDS011;63652;51.526;5.080;2023-02-05T12:35:31;13.10;;;2.13;;
75073;SDS011;63652;51.526;5.080;2023-02-05T12:38:06;13.15;;;2.97;;
75073;SDS011;63652;51.526;5.080;2023-02-05T12:40:50;13.18;;;2.45;;
75073;SDS011;63652;51.526;5.080;2023-02-05T12:46:32;16.40;;;2.92;;
75073;SDS011;63652;51.526;5.080;2023-02-05T12:56:48;16.25;;;3.00;;
75073;SDS011;63652;51.526;5.080;2023-02-05T12:59:30;17.67;;;3.67;;
75073;SDS011;63652;51.526;5.080;2023-02-05T13:02:03;11.43;;;2.03;;
75073;SDS011;63652;51.526;5.080;2023-02-05T13:07:08;8.38;;;2.45;;
75073;SDS011;63652;51.526;5.080;2023-02-05T13:12:07;11.73;;;2.13;;
75073;SDS011;63652;51.526;5.080;2023-02-05T13:14:38;9.35;;;2.13;;
75073;SDS011;63652;51.526;5.080;2023-02-05T13:17:08;16.98;;;1.80;;
75073;SDS011;63652;51.526;5.080;2023-02-05T13:19:37;17.00;;;2.03;;
75073;SDS011;63652;51.526;5.080;2023-02-05T13:22:12;11.48;;;1.58;;
75073;SDS011;63652;51.526;5.080;2023-02-05T13:25:01;16.50;;;2.55;;
75073;SDS011;63652;51.526;5.080;2023-02-05T13:31:05;11.25;;;2.17;;
75073;SDS011;63652;51.526;5.080;2023-02-05T13:33:35;11.50;;;2.60;;
75073;SDS011;63652;51.526;5.080;2023-02-05T13:46:50;7.65;;;1.50;;
75073;SDS011;63652;51.526;5.080;2023-02-05T13:52:09;13.85;;;1.75;;
75073;SDS011;63652;51.526;5.080;2023-02-05T14:00:11;13.07;;;1.95;;
75073;SDS011;63652;51.526;5.080;2023-02-05T14:05:13;12.15;;;1.77;;
75073;SDS011;63652;51.526;5.080;2023-02-05T14:07:43;14.73;;;3.15;;
75073;SDS011;63652;51.526;5.080;2023-02-05T14:13:20;10.32;;;1.70;;
75073;SDS011;63652;51.526;5.080;2023-02-05T14:15:49;9.80;;;1.83;;
75073;SDS011;63652;51.526;5.080;2023-02-05T14:23:54;17.98;;;2.65;;
75073;SDS011;63652;51.526;5.080;2023-02-05T14:26:56;10.73;;;2.05;;
75073;SDS011;63652;51.526;5.080;2023-02-05T14:29:36;10.68;;;2.03;;
75073;SDS011;63652;51.526;5.080;2023-02-05T14:35:25;11.70;;;2.05;;
75073;SDS011;63652;51.526;5.080;2023-02-05T14:43:33;14.45;;;2.83;;
75073;SDS011;63652;51.526;5.080;2023-02-05T14:46:18;5.22;;;1.27;;
75073;SDS011;63652;51.526;5.080;2023-02-05T14:48:57;17.08;;;2.17;;
75073;SDS011;63652;51.526;5.080;2023-02-05T14:51:25;8.70;;;2.47;;
75073;SDS011;63652;51.526;5.080;2023-02-05T14:53:58;8.73;;;1.90;;
75073;SDS011;63652;51.526;5.080;2023-02-05T15:01:53;13.85;;;2.17;;
75073;SDS011;63652;51.526;5.080;2023-02-05T15:07:13;19.60;;;4.13;;
75073;SDS011;63652;51.526;5.080;2023-02-05T15:15:27;10.57;;;2.05;;
75073;SDS011;63652;51.526;5.080;2023-02-05T15:18:08;10.43;;;2.20;;
75073;SDS011;63652;51.526;5.080;2023-02-05T15:20:45;13.65;;;2.85;;
75073;SDS011;63652;51.526;5.080;2023-02-05T15:25:41;18.40;;;3.30;;
75073;SDS011;63652;51.526;5.080;2023-02-05T15:31:05;15.05;;;2.50;;
75073;SDS011;63652;51.526;5.080;2023-02-05T15:33:53;17.52;;;2.67;;
75073;SDS011;63652;51.526;5.080;2023-02-05T15:36:49;25.60;;;2.80;;
75073;SDS011;63652;51.526;5.080;2023-02-05T15:41:53;20.50;;;5.35;;
75073;SDS011;63652;51.526;5.080;2023-02-05T15:44:21;12.13;;;2.10;;
75073;SDS011;63652;51.526;5.080;2023-02-05T15:46:51;23.05;;;2.75;;
75073;SDS011;63652;51.526;5.080;2023-02-05T15:49:18;14.93;;;3.67;;
75073;SDS011;63652;51.526;5.080;2023-02-05T15:51:45;18.13;;;3.42;;
75073;SDS011;63652;51.526;5.080;2023-02-05T15:54:13;21.48;;;3.03;;
75073;SDS011;63652;51.526;5.080;2023-02-05T15:56:43;18.80;;;3.10;;
75073;SDS011;63652;51.526;5.080;2023-02-05T15:59:20;13.15;;;2.45;;
75073;SDS011;63652;51.526;5.080;2023-02-05T16:01:49;13.13;;;3.22;;
75073;SDS011;63652;51.526;5.080;2023-02-05T16:04:29;20.58;;;3.50;;
75073;SDS011;63652;51.526;5.080;2023-02-05T16:06:56;15.88;;;2.17;;
75073;SDS011;63652;51.526;5.080;2023-02-05T16:09:24;17.20;;;2.47;;
75073;SDS011;63652;51.526;5.080;2023-02-05T16:11:51;12.77;;;3.17;;
75073;SDS011;63652;51.526;5.080;2023-02-05T16:14:21;21.42;;;2.70;;
75073;SDS011;63652;51.526;5.080;2023-02-05T16:19:18;17.85;;;2.92;;
75073;SDS011;63652;51.526;5.080;2023-02-05T16:21:47;19.02;;;2.83;;
75073;SDS011;63652;51.526;5.080;2023-02-05T16:26:47;21.77;;;3.95;;
75073;SDS011;63652;51.526;5.080;2023-02-05T16:29:21;23.00;;;4.25;;
75073;SDS011;63652;51.526;5.080;2023-02-05T16:31:54;14.80;;;3.05;;
75073;SDS011;63652;51.526;5.080;2023-02-05T16:34:21;40.65;;;5.05;;
75073;SDS011;63652;51.526;5.080;2023-02-05T16:36:49;16.13;;;2.80;;
75073;SDS011;63652;51.526;5.080;2023-02-05T16:39:23;13.65;;;3.22;;
75073;SDS011;63652;51.526;5.080;2023-02-05T16:44:30;11.50;;;2.40;;
75073;SDS011;63652;51.526;5.080;2023-02-05T16:47:05;19.77;;;4.38;;
75073;SDS011;63652;51.526;5.080;2023-02-05T16:49:34;19.13;;;3.40;;
75073;SDS011;63652;51.526;5.080;2023-02-05T16:52:00;16.52;;;3.17;;
75073;SDS011;63652;51.526;5.080;2023-02-05T16:54:30;17.00;;;3.83;;
75073;SDS011;63652;51.526;5.080;2023-02-05T16:59:28;18.27;;;3.28;;
75073;SDS011;63652;51.526;5.080;2023-02-05T17:01:56;16.38;;;2.70;;
75073;SDS011;63652;51.526;5.080;2023-02-05T17:04:33;16.40;;;2.63;;
75073;SDS011;63652;51.526;5.080;2023-02-05T17:07:05;22.40;;;3.72;;
75073;SDS011;63652;51.526;5.080;2023-02-05T17:09:40;23.08;;;4.18;;
75073;SDS011;63652;51.526;5.080;2023-02-05T17:17:19;20.98;;;3.20;;
75073;SDS011;63652;51.526;5.080;2023-02-05T17:22:33;19.67;;;2.97;;
75073;SDS011;63652;51.526;5.080;2023-02-05T17:25:01;17.85;;;2.97;;
75073;SDS011;63652;51.526;5.080;2023-02-05T17:27:36;21.40;;;4.85;;
75073;SDS011;63652;51.526;5.080;2023-02-05T17:30:03;18.73;;;4.57;;